createdAt,value
2023-04-22T00:01:54.991Z,61.80
2023-04-22T00:04:22.769Z,60.25
2023-04-22T00:06:50.531Z,59.10
2023-04-22T00:09:19.831Z,62.40
2023-04-22T00:11:48.107Z,57.38
2023-04-22T00:14:15.515Z,56.65
2023-04-22T00:16:42.986Z,59.70
2023-04-22T00:19:10.465Z,58.17
2023-04-22T00:21:37.899Z,63.70
2023-04-22T00:24:05.344Z,56.72
2023-04-22T00:26:32.765Z,59.00
2023-04-22T00:29:00.438Z,61.13
2023-04-22T00:31:27.965Z,59.30
2023-04-22T00:33:55.428Z,56.72
2023-04-22T00:36:23.051Z,59.38
2023-04-22T00:38:53.904Z,54.92
2023-04-22T00:41:21.742Z,57.38
2023-04-22T00:43:49.988Z,61.40
2023-04-22T00:46:17.503Z,57.95
2023-04-22T00:48:46.184Z,64.30
2023-04-22T00:51:13.555Z,63.33
2023-04-22T00:53:41.213Z,62.63
2023-04-22T00:56:08.890Z,54.97
2023-04-22T00:58:36.241Z,58.78
2023-04-22T01:01:03.660Z,59.88
2023-04-22T01:03:33.415Z,63.80
2023-04-22T01:10:09.320Z,60.65
2023-04-22T01:12:36.927Z,58.13
2023-04-22T01:15:05.159Z,58.17
2023-04-22T01:17:33.910Z,59.38
2023-04-22T01:20:04.067Z,57.97
2023-04-22T01:22:33.927Z,62.05
2023-04-22T01:25:01.649Z,55.65
2023-04-22T01:27:29.204Z,57.90
2023-04-22T01:29:56.909Z,57.95
2023-04-22T01:32:24.848Z,55.70
2023-04-22T01:34:52.712Z,57.95
2023-04-22T01:37:20.133Z,57.40
2023-04-22T01:39:48.391Z,53.75
2023-04-22T01:42:16.056Z,55.33
2023-04-22T01:44:43.413Z,57.00
2023-04-22T01:47:11.088Z,56.53
2023-04-22T01:49:38.662Z,54.50
2023-04-22T01:52:06.259Z,56.17
2023-04-22T01:54:34.077Z,52.58
2023-04-22T01:57:10.161Z,59.13
2023-04-22T01:59:38.610Z,54.42
2023-04-22T02:02:06.609Z,52.35
2023-04-22T02:04:34.046Z,54.08
2023-04-22T02:07:01.464Z,53.33
2023-04-22T02:09:28.928Z,46.78
2023-04-22T02:11:56.912Z,48.92
2023-04-22T02:14:24.231Z,48.72
2023-04-22T02:16:51.861Z,48.70
2023-04-22T02:19:19.218Z,53.85
2023-04-22T02:25:54.863Z,49.07
2023-04-22T02:28:22.640Z,49.63
2023-04-22T02:30:50.127Z,48.20
2023-04-22T02:33:17.561Z,52.92
2023-04-22T02:35:45.162Z,52.27
2023-04-22T02:38:17.127Z,53.08
2023-04-22T02:40:44.517Z,59.15
2023-04-22T02:43:12.789Z,55.53
2023-04-22T02:45:41.037Z,58.93
2023-04-22T02:48:08.918Z,56.63
2023-04-22T02:50:36.926Z,55.03
2023-04-22T02:53:04.382Z,62.08
2023-04-22T02:55:31.833Z,55.05
2023-04-22T02:57:59.246Z,53.58
2023-04-22T03:00:26.995Z,52.85
2023-04-22T03:02:55.821Z,58.97
2023-04-22T03:05:29.026Z,57.20
2023-04-22T03:07:56.592Z,52.67
2023-04-22T03:10:24.085Z,56.43
2023-04-22T03:12:51.750Z,56.83
2023-04-22T03:15:21.650Z,54.93
2023-04-22T03:17:49.725Z,52.87
2023-04-22T03:20:19.118Z,56.40
2023-04-22T03:22:46.527Z,49.07
2023-04-22T03:25:15.641Z,54.53
2023-04-22T03:27:48.878Z,49.97
2023-04-22T03:30:16.350Z,51.80
2023-04-22T03:32:43.792Z,54.37
2023-04-22T03:35:21.652Z,45.33
2023-04-22T03:37:51.079Z,53.70
2023-04-22T03:40:23.608Z,51.27
2023-04-22T03:42:51.024Z,55.93
2023-04-22T03:45:21.589Z,48.43
2023-04-22T03:47:59.387Z,53.00
2023-04-22T03:50:36.386Z,52.57
2023-04-22T03:53:04.063Z,54.03
2023-04-22T03:55:31.744Z,54.60
2023-04-22T03:57:59.275Z,52.80
2023-04-22T04:00:26.640Z,52.00
2023-04-22T04:03:06.819Z,45.00
2023-04-22T04:05:35.837Z,50.33
2023-04-22T04:08:04.084Z,50.00
2023-04-22T04:10:31.505Z,60.13
2023-04-22T04:13:00.710Z,53.43
2023-04-22T04:15:32.500Z,51.83
2023-04-22T04:18:01.410Z,53.37
2023-04-22T04:20:31.601Z,51.67
2023-04-22T04:22:59.512Z,51.47
2023-04-22T04:25:29.413Z,50.37
2023-04-22T04:27:56.947Z,53.83
2023-04-22T04:30:25.718Z,50.90
2023-04-22T04:32:55.344Z,49.27
2023-04-22T04:35:23.992Z,49.23
2023-04-22T04:42:04.077Z,43.07
2023-04-22T04:44:37.133Z,43.30
2023-04-22T04:47:07.012Z,43.13
2023-04-22T04:49:40.117Z,42.70
2023-04-22T04:52:10.336Z,43.77
2023-04-22T04:54:38.610Z,45.57
2023-04-22T04:57:06.635Z,42.77
2023-04-22T04:59:34.713Z,41.27
2023-04-22T05:02:02.656Z,44.30
2023-04-22T05:04:31.518Z,37.72
2023-04-22T05:06:59.272Z,39.80
2023-04-22T05:09:27.385Z,40.03
2023-04-22T05:11:55.028Z,41.50
2023-04-22T05:14:22.844Z,39.45
2023-04-22T05:16:50.431Z,41.55
2023-04-22T05:19:18.146Z,38.25
2023-04-22T05:21:47.643Z,37.40
2023-04-22T05:24:16.375Z,36.70
2023-04-22T05:26:44.240Z,38.80
2023-04-22T05:29:16.467Z,43.80
2023-04-22T05:31:44.227Z,34.60
2023-04-22T05:34:12.491Z,41.05
2023-04-22T05:36:40.521Z,34.03
2023-04-22T05:39:08.350Z,38.05
2023-04-22T05:41:36.295Z,37.95
2023-04-22T05:44:07.966Z,39.25
2023-04-22T05:46:35.558Z,35.88
2023-04-22T05:49:03.446Z,38.45
2023-04-22T05:51:49.331Z,42.63
2023-04-22T05:54:19.852Z,37.63
2023-04-22T05:56:47.614Z,40.60
2023-04-22T05:59:15.240Z,37.45
2023-04-22T06:01:42.844Z,32.40
2023-04-22T06:04:11.949Z,35.35
2023-04-22T06:06:40.155Z,36.15
2023-04-22T06:09:07.714Z,32.55
2023-04-22T06:11:35.170Z,29.17
2023-04-22T06:14:02.619Z,31.20
2023-04-22T06:16:31.525Z,34.17
2023-04-22T06:18:59.398Z,29.35
2023-04-22T06:26:07.138Z,33.25
2023-04-22T06:28:36.314Z,29.83
2023-04-22T06:31:08.914Z,30.55
2023-04-22T06:33:37.033Z,31.67
2023-04-22T06:36:05.187Z,31.58
2023-04-22T06:42:38.913Z,28.58
2023-04-22T06:45:25.930Z,28.65
2023-04-22T06:48:02.525Z,30.27
2023-04-22T06:50:45.208Z,27.48
2023-04-22T06:53:12.717Z,23.88
2023-04-22T06:55:41.258Z,24.10
2023-04-22T06:58:08.924Z,22.52
2023-04-22T07:00:36.335Z,24.75
2023-04-22T07:03:03.818Z,25.35
2023-04-22T07:05:32.260Z,21.45
2023-04-22T07:08:00.689Z,23.98
2023-04-22T07:10:28.384Z,30.60
2023-04-22T07:13:21.817Z,28.70
2023-04-22T07:15:49.256Z,25.38
2023-04-22T07:18:16.669Z,27.88
2023-04-22T07:20:44.138Z,26.80
2023-04-22T07:23:11.595Z,31.70
2023-04-22T07:25:39.240Z,27.70
2023-04-22T07:28:06.596Z,29.73
2023-04-22T07:30:34.188Z,28.05
2023-04-22T07:33:01.668Z,29.02
2023-04-22T07:35:29.951Z,26.33
2023-04-22T07:37:57.500Z,29.42
2023-04-22T07:40:24.992Z,26.15
2023-04-22T07:42:52.525Z,29.88
2023-04-22T07:45:20.242Z,28.00
2023-04-22T07:47:47.706Z,28.48
2023-04-22T07:50:15.204Z,24.27
2023-04-22T07:52:42.561Z,24.85
2023-04-22T07:55:10.150Z,26.58
2023-04-22T07:57:39.280Z,29.00
2023-04-22T08:00:07.935Z,26.52
2023-04-22T08:02:41.980Z,26.38
2023-04-22T08:05:09.641Z,24.40
2023-04-22T08:07:37.073Z,25.95
2023-04-22T08:10:04.722Z,23.55
2023-04-22T08:12:32.144Z,26.05
2023-04-22T08:14:59.594Z,24.23
2023-04-22T08:17:27.363Z,23.20
2023-04-22T08:19:54.947Z,21.30
2023-04-22T08:22:24.228Z,23.05
2023-04-22T08:28:59.491Z,21.83
2023-04-22T08:31:27.092Z,20.40
2023-04-22T08:33:54.539Z,19.45
2023-04-22T08:36:23.680Z,17.92
2023-04-22T08:38:51.378Z,14.18
2023-04-22T08:41:19.315Z,14.85
2023-04-22T08:43:47.092Z,13.95
2023-04-22T08:46:15.931Z,16.27
2023-04-22T08:48:43.363Z,16.65
2023-04-22T08:51:11.028Z,12.55
2023-04-22T08:53:38.453Z,14.30
2023-04-22T08:56:06.423Z,15.20
2023-04-22T08:58:35.548Z,12.10
2023-04-22T09:01:04.206Z,11.93
2023-04-22T09:03:31.873Z,13.15
2023-04-22T09:06:00.479Z,9.82
2023-04-22T09:08:28.376Z,10.02
2023-04-22T09:10:58.183Z,12.02
2023-04-22T09:13:30.110Z,9.35
2023-04-22T09:16:01.345Z,11.10
2023-04-22T09:18:32.314Z,11.98
2023-04-22T09:21:03.280Z,11.32
2023-04-22T09:23:34.796Z,9.68
2023-04-22T09:26:05.826Z,10.20
2023-04-22T09:28:37.918Z,12.65
2023-04-22T09:31:05.654Z,15.48
2023-04-22T09:33:34.951Z,10.70
2023-04-22T09:36:09.432Z,11.13
2023-04-22T09:38:36.791Z,11.95
2023-04-22T09:41:09.969Z,11.98
2023-04-22T09:43:38.894Z,11.45
2023-04-22T09:46:09.414Z,15.20
2023-04-22T09:48:43.701Z,11.30
2023-04-22T09:51:20.518Z,9.95
2023-04-22T09:54:09.184Z,11.52
2023-04-22T09:56:48.868Z,12.65
2023-04-22T09:59:23.563Z,11.30
2023-04-22T10:01:57.472Z,10.70
2023-04-22T10:04:25.988Z,10.48
2023-04-22T10:06:54.390Z,10.43
2023-04-22T10:09:23.070Z,10.05
2023-04-22T10:11:54.538Z,10.10
2023-04-22T10:14:23.102Z,8.15
2023-04-22T10:16:53.017Z,10.02
2023-04-22T10:19:24.445Z,9.48
2023-04-22T10:22:00.690Z,9.75
2023-04-22T10:24:29.783Z,13.48
2023-04-22T10:27:04.696Z,8.95
2023-04-22T10:29:40.048Z,10.38
2023-04-22T10:32:25.151Z,9.85
2023-04-22T10:35:07.869Z,10.75
2023-04-22T10:37:36.247Z,10.25
2023-04-22T10:40:22.938Z,11.45
2023-04-22T10:42:52.209Z,10.60
2023-04-22T10:45:20.308Z,8.77
2023-04-22T10:47:48.129Z,13.15
2023-04-22T10:50:17.914Z,10.93
2023-04-22T10:52:53.257Z,11.27
2023-04-22T10:55:24.484Z,8.65
2023-04-22T10:57:54.188Z,9.50
2023-04-22T11:00:21.856Z,9.30
2023-04-22T11:03:09.849Z,8.95
2023-04-22T11:05:38.379Z,9.18
2023-04-22T11:08:08.776Z,8.00
2023-04-22T11:10:44.819Z,10.55
2023-04-22T11:13:21.541Z,8.85
2023-04-22T11:15:51.530Z,10.23
2023-04-22T11:18:20.637Z,10.55
2023-04-22T11:20:50.139Z,9.50
2023-04-22T11:23:29.266Z,7.32
2023-04-22T11:26:00.768Z,8.77
2023-04-22T11:28:29.384Z,8.15
2023-04-22T11:31:12.073Z,8.38
2023-04-22T11:33:42.695Z,8.05
2023-04-22T11:36:12.846Z,8.07
2023-04-22T11:38:40.860Z,8.20
2023-04-22T11:41:11.497Z,7.43
2023-04-22T11:43:50.709Z,7.40
2023-04-22T11:46:28.780Z,7.18
2023-04-22T11:49:11.728Z,7.60
2023-04-22T11:51:52.041Z,11.10
2023-04-22T11:58:20.971Z,7.28
2023-04-22T12:00:49.130Z,6.50
2023-04-22T12:03:18.369Z,7.30
2023-04-22T12:05:47.136Z,9.13
2023-04-22T12:08:16.254Z,7.63
2023-04-22T12:15:13.744Z,8.10
2023-04-22T12:17:41.692Z,10.82
2023-04-22T12:20:13.737Z,7.07
2023-04-22T12:22:42.369Z,6.82
2023-04-22T12:25:10.621Z,7.30
2023-04-22T12:27:40.084Z,4.88
2023-04-22T12:30:12.179Z,6.45
2023-04-22T12:32:41.002Z,8.50
2023-04-22T12:35:11.458Z,8.63
2023-04-22T12:37:39.927Z,6.13
2023-04-22T12:40:09.084Z,6.35
2023-04-22T12:42:37.960Z,6.60
2023-04-22T12:45:05.997Z,7.13
2023-04-22T12:47:33.784Z,5.55
2023-04-22T12:50:06.382Z,7.70
2023-04-22T12:52:34.767Z,9.57
2023-04-22T12:55:02.219Z,7.70
2023-04-22T12:57:29.743Z,6.32
2023-04-22T12:59:57.382Z,9.15
2023-04-22T13:02:24.965Z,7.63
2023-04-22T13:04:53.291Z,11.18
2023-04-22T13:07:21.401Z,8.93
2023-04-22T13:09:48.931Z,12.65
2023-04-22T13:16:34.741Z,7.30
2023-04-22T13:19:02.383Z,9.52
2023-04-22T13:21:31.940Z,7.10
2023-04-22T13:24:02.424Z,7.75
2023-04-22T13:26:31.504Z,9.98
2023-04-22T13:29:00.884Z,8.65
2023-04-22T13:31:30.012Z,9.95
2023-04-22T13:33:57.399Z,9.75
2023-04-22T13:36:24.861Z,8.70
2023-04-22T13:38:52.338Z,7.10
2023-04-22T13:41:19.678Z,10.80
2023-04-22T13:43:51.859Z,7.90
2023-04-22T13:46:19.276Z,9.80
2023-04-22T13:48:46.821Z,8.18
2023-04-22T13:51:14.224Z,8.50
2023-04-22T13:53:41.551Z,7.13
2023-04-22T13:56:08.969Z,8.10
2023-04-22T13:58:36.448Z,9.45
2023-04-22T14:01:04.301Z,9.20
2023-04-22T14:03:31.709Z,10.63
2023-04-22T14:05:59.450Z,8.23
2023-04-22T14:08:26.776Z,8.48
2023-04-22T14:10:55.449Z,8.15
2023-04-22T14:13:23.688Z,8.77
2023-04-22T14:15:51.351Z,7.45
2023-04-22T14:18:18.733Z,8.98
2023-04-22T14:20:46.273Z,7.07
2023-04-22T14:23:13.618Z,7.68
2023-04-22T14:25:40.977Z,6.90
2023-04-22T14:28:08.466Z,8.98
2023-04-22T14:30:35.912Z,7.47
2023-04-22T14:33:06.992Z,6.65
2023-04-22T14:35:35.407Z,10.05
2023-04-22T14:38:03.895Z,10.57
2023-04-22T14:40:31.511Z,9.63
2023-04-22T14:42:59.789Z,9.82
2023-04-22T14:45:28.780Z,6.22
2023-04-22T14:47:56.562Z,9.38
2023-04-22T14:50:23.991Z,10.35
2023-04-22T14:52:51.498Z,8.25
2023-04-22T14:55:23.235Z,10.35
2023-04-22T15:02:15.952Z,6.72
2023-04-22T15:04:44.329Z,6.10
2023-04-22T15:07:11.770Z,7.63
2023-04-22T15:09:39.412Z,7.88
2023-04-22T15:12:07.223Z,8.15
2023-04-22T15:14:35.711Z,9.25
2023-04-22T15:17:03.353Z,8.85
2023-04-22T15:19:30.693Z,8.80
2023-04-22T15:21:58.327Z,8.23
2023-04-22T15:24:25.819Z,8.15
2023-04-22T15:26:53.684Z,6.88
2023-04-22T15:29:21.559Z,7.50
2023-04-22T15:31:48.999Z,8.63
2023-04-22T15:34:16.384Z,8.00
2023-04-22T15:36:43.839Z,7.82
2023-04-22T15:39:12.329Z,6.15
2023-04-22T15:41:39.807Z,7.68
2023-04-22T15:44:08.765Z,8.05
2023-04-22T15:46:37.575Z,7.18
2023-04-22T15:49:05.279Z,7.72
2023-04-22T15:51:32.676Z,13.35
2023-04-22T15:54:00.799Z,7.82
2023-04-22T15:56:29.507Z,8.60
2023-04-22T15:58:56.882Z,8.23
2023-04-22T16:01:24.239Z,8.45
2023-04-22T16:03:51.925Z,7.65
2023-04-22T16:06:19.969Z,8.93
2023-04-22T16:08:47.357Z,9.10
2023-04-22T16:11:15.393Z,9.60
2023-04-22T16:13:42.919Z,8.52
2023-04-22T16:16:11.159Z,8.23
2023-04-22T16:18:38.709Z,7.97
2023-04-22T16:21:06.220Z,6.97
2023-04-22T16:23:34.711Z,10.00
2023-04-22T16:26:04.518Z,6.70
2023-04-22T16:32:50.866Z,8.70
2023-04-22T16:35:18.294Z,7.63
2023-04-22T16:37:45.654Z,6.47
2023-04-22T16:40:13.133Z,8.80
2023-04-22T16:42:40.700Z,7.70
2023-04-22T16:45:09.567Z,7.47
2023-04-22T16:47:36.930Z,8.60
2023-04-22T16:50:04.638Z,6.72
2023-04-22T16:52:32.078Z,8.82
2023-04-22T16:55:00.523Z,9.85
2023-04-22T16:57:27.858Z,8.13
2023-04-22T16:59:55.255Z,8.25
2023-04-22T17:02:22.818Z,8.63
2023-04-22T17:04:50.294Z,7.65
2023-04-22T17:07:17.764Z,9.35
2023-04-22T17:09:45.194Z,9.27
2023-04-22T17:12:12.614Z,7.68
2023-04-22T17:14:40.230Z,7.97
2023-04-22T17:17:07.761Z,7.30
2023-04-22T17:19:36.643Z,8.00
2023-04-22T17:22:04.110Z,11.48
2023-04-22T17:24:31.666Z,9.57
2023-04-22T17:26:58.986Z,11.18
2023-04-22T17:29:26.595Z,14.48
2023-04-22T17:31:54.069Z,13.68
2023-04-22T17:34:21.596Z,12.88
2023-04-22T17:36:48.861Z,10.77
2023-04-22T17:39:16.324Z,8.90
2023-04-22T17:41:44.495Z,10.57
2023-04-22T17:48:29.903Z,14.40
2023-04-22T17:50:57.300Z,11.70
2023-04-22T17:53:24.700Z,9.02
2023-04-22T17:55:52.053Z,11.30
2023-04-22T17:58:19.412Z,9.32
2023-04-22T18:00:46.901Z,12.02
2023-04-22T18:03:14.822Z,13.85
2023-04-22T18:05:44.599Z,13.15
2023-04-22T18:08:11.999Z,12.82
2023-04-22T18:10:39.663Z,10.32
2023-04-22T18:13:07.316Z,11.77
2023-04-22T18:15:34.790Z,10.15
2023-04-22T18:18:02.200Z,13.68
2023-04-22T18:20:29.647Z,16.50
2023-04-22T18:22:57.043Z,12.98
2023-04-22T18:25:25.900Z,15.65
2023-04-22T18:27:55.200Z,26.95
2023-04-22T18:30:23.745Z,33.55
2023-04-22T18:32:51.765Z,25.50
2023-04-22T18:35:20.152Z,36.58
2023-04-22T18:37:47.859Z,23.95
2023-04-22T18:40:15.331Z,22.65
2023-04-22T18:42:44.932Z,13.70
2023-04-22T18:45:12.721Z,14.65
2023-04-22T18:47:40.217Z,14.73
2023-04-22T18:50:08.201Z,14.32
2023-04-22T18:52:35.783Z,13.40
2023-04-22T18:55:03.506Z,14.10
2023-04-22T18:57:31.192Z,10.70
2023-04-22T18:59:58.528Z,14.60
2023-04-22T19:02:26.112Z,12.90
2023-04-22T19:04:56.413Z,10.23
2023-04-22T19:07:23.953Z,12.60
2023-04-22T19:09:51.361Z,13.52
2023-04-22T19:12:19.712Z,12.25
2023-04-22T19:18:55.146Z,12.10
2023-04-22T19:21:22.859Z,12.05
2023-04-22T19:23:53.172Z,10.27
2023-04-22T19:26:22.051Z,10.73
2023-04-22T19:28:49.525Z,11.73
2023-04-22T19:31:17.741Z,16.48
2023-04-22T19:33:45.566Z,17.40
2023-04-22T19:36:12.986Z,19.52
2023-04-22T19:38:40.495Z,22.85
2023-04-22T19:41:09.076Z,17.33
2023-04-22T19:43:37.933Z,19.38
2023-04-22T19:46:05.512Z,21.10
2023-04-22T19:48:33.149Z,20.90
2023-04-22T19:51:01.118Z,21.55
2023-04-22T19:53:31.012Z,19.08
2023-04-22T19:55:58.718Z,19.48
2023-04-22T19:58:28.549Z,17.52
2023-04-22T20:00:56.278Z,17.83
2023-04-22T20:03:24.185Z,19.15
2023-04-22T20:05:52.201Z,15.45
2023-04-22T20:08:20.094Z,16.55
2023-04-22T20:10:49.694Z,13.30
2023-04-22T20:13:18.024Z,15.73
2023-04-22T20:15:45.562Z,13.02
2023-04-22T20:18:13.128Z,17.75
2023-04-22T20:20:48.276Z,14.32
2023-04-22T20:23:15.879Z,14.50
2023-04-22T20:25:47.164Z,17.45
2023-04-22T20:28:14.774Z,14.77
2023-04-22T20:30:42.290Z,15.25
2023-04-22T20:33:12.270Z,15.40
2023-04-22T20:35:40.403Z,17.67
2023-04-22T20:38:08.967Z,18.17
2023-04-22T20:40:36.429Z,22.23
2023-04-22T20:43:03.825Z,20.27
2023-04-22T20:49:50.152Z,24.02
2023-04-22T20:52:17.776Z,23.27
2023-04-22T20:54:45.430Z,22.52
2023-04-22T20:57:13.081Z,26.70
2023-04-22T20:59:40.669Z,24.08
2023-04-22T21:02:09.081Z,34.03
2023-04-22T21:04:37.188Z,25.73
2023-04-22T21:07:07.958Z,26.30
2023-04-22T21:09:35.706Z,27.73
2023-04-22T21:12:03.807Z,23.63
2023-04-22T21:14:31.540Z,30.38
2023-04-22T21:17:01.731Z,25.05
2023-04-22T21:19:33.194Z,29.60
2023-04-22T21:22:05.451Z,29.52
2023-04-22T21:24:35.168Z,33.15
2023-04-22T21:27:03.100Z,28.27
2023-04-22T21:29:30.709Z,31.52
2023-04-22T21:32:08.190Z,31.73
2023-04-22T21:34:36.531Z,31.52
2023-04-22T21:37:04.901Z,34.03
2023-04-22T21:39:32.335Z,32.53
2023-04-22T21:41:59.788Z,30.58
2023-04-22T21:44:27.109Z,31.63
2023-04-22T21:46:54.529Z,35.83
2023-04-22T21:49:23.130Z,34.10
2023-04-22T21:51:50.797Z,36.28
2023-04-22T21:54:18.364Z,35.38
2023-04-22T21:56:45.821Z,30.42
2023-04-22T21:59:13.179Z,33.22
2023-04-22T22:01:40.746Z,36.03
2023-04-22T22:04:08.148Z,39.13
2023-04-22T22:06:35.865Z,34.33
2023-04-22T22:09:03.324Z,37.70
2023-04-22T22:11:31.573Z,41.40
2023-04-22T22:13:59.722Z,43.67
2023-04-22T22:16:27.185Z,44.10
2023-04-22T22:18:55.829Z,39.80
2023-04-22T22:21:24.037Z,40.35
2023-04-22T22:23:51.867Z,38.47
2023-04-22T22:26:19.402Z,45.53
2023-04-22T22:28:47.162Z,41.88
2023-04-22T22:35:23.140Z,38.85
2023-04-22T22:37:50.622Z,36.83
2023-04-22T22:40:18.137Z,43.75
2023-04-22T22:42:45.601Z,36.88
2023-04-22T22:45:13.034Z,48.08
2023-04-22T22:47:40.544Z,36.38
2023-04-22T22:50:08.331Z,43.63
2023-04-22T22:52:35.812Z,41.83
2023-04-22T22:55:03.386Z,46.15
2023-04-22T22:57:30.805Z,43.92
2023-04-22T22:59:58.247Z,39.50
2023-04-22T23:02:26.620Z,41.55
2023-04-22T23:04:54.337Z,47.83
2023-04-22T23:07:22.418Z,48.25
2023-04-22T23:09:49.771Z,52.53
2023-04-22T23:12:17.319Z,52.58
2023-04-22T23:14:44.789Z,55.50
2023-04-22T23:17:12.193Z,49.15
2023-04-22T23:19:40.021Z,47.42
2023-04-22T23:22:07.857Z,47.95
2023-04-22T23:24:35.414Z,45.88
2023-04-22T23:27:03.118Z,54.63
2023-04-22T23:29:30.980Z,45.22
2023-04-22T23:32:01.018Z,46.15
2023-04-22T23:34:29.949Z,49.58
2023-04-22T23:36:58.520Z,45.28
2023-04-22T23:39:25.860Z,58.78
2023-04-22T23:41:53.212Z,53.05
2023-04-22T23:44:20.999Z,55.38
2023-04-22T23:50:56.229Z,46.53
2023-04-22T23:53:23.555Z,50.33
2023-04-22T23:55:51.729Z,50.50
2023-04-22T23:58:19.179Z,45.85
